Time;durP1;ratioP1;P1;durP2;ratioP2;P2;SDS_P1;SDS_P2;PMS_P1;PMS_P2;Temp;Humidity;BMP_temperature;BMP_pressure;BME280_temperature;BME280_humidity;BME280_pressure;Samples;Min_cycle;Max_cycle;Signal;HPM_P1;HPM_P2
2022/07/15 00:02:09;;;;;;;13.65;2.35;;;12.30;99.90;;;;;;5155928;27;20134;-77
2022/07/15 00:04:35;;;;;;;;;;;12.30;99.90;;;;;;5155485;27;20371;-79
2022/07/15 00:07:01;;;;;;;12.33;2.30;;;12.20;99.90;;;;;;5139058;27;20015;-76
2022/07/15 00:12:11;;;;;;;8.90;2.00;;;12.10;99.90;;;;;;5157286;27;20051;-76
2022/07/15 00:14:38;;;;;;;10.32;1.90;;;12.00;99.90;;;;;;5122599;27;20486;-76
2022/07/15 00:17:06;;;;;;;18.33;2.63;;;12.00;99.90;;;;;;5157369;27;20047;-77
2022/07/15 00:19:32;;;;;;;9.82;2.00;;;12.00;99.90;;;;;;5138786;27;20085;-76
2022/07/15 00:21:58;;;;;;;6.88;1.83;;;11.90;99.90;;;;;;5138760;27;20078;-75
2022/07/15 00:24:24;;;;;;;10.55;1.80;;;11.80;99.90;;;;;;5140005;27;20423;-77
2022/07/15 00:26:50;;;;;;;8.07;1.50;;;11.70;99.90;;;;;;5121968;27;20089;-77
2022/07/15 00:29:16;;;;;;;18.70;2.17;;;11.80;99.90;;;;;;5122065;27;20039;-77
2022/07/15 00:31:42;;;;;;;11.57;2.00;;;11.80;99.90;;;;;;5139078;27;20075;-76
2022/07/15 00:34:08;;;;;;;11.27;2.03;;;11.80;99.90;;;;;;5157476;27;20491;-77
2022/07/15 00:36:33;;;;;;;13.00;2.50;;;11.90;99.90;;;;;;5156625;27;20042;-76
2022/07/15 00:39:03;;;;;;;10.20;2.55;;;11.90;99.90;;;;;;5121192;27;20053;-77
2022/07/15 00:41:39;;;;;;;10.00;2.10;;;11.90;99.90;;;;;;5157314;27;20059;-77
2022/07/15 00:44:05;;;;;;;12.13;2.38;;;12.00;99.90;;;;;;5157654;27;20050;-77
2022/07/15 00:46:32;;;;;;;8.07;2.20;;;12.10;99.90;;;;;;5138847;27;20047;-77
2022/07/15 00:48:59;;;;;;;13.02;3.40;;;12.20;99.90;;;;;;5138901;27;20046;-76
2022/07/15 00:51:25;;;;;;;8.98;2.83;;;12.20;99.90;;;;;;5120993;27;20051;-76
2022/07/15 00:53:52;;;;;;;10.65;2.20;;;12.20;99.90;;;;;;5121757;27;20043;-77
2022/07/15 00:56:22;;;;;;;10.73;2.60;;;12.20;99.90;;;;;;5138695;27;20129;-77
2022/07/15 00:58:51;;;;;;;11.13;3.08;;;12.30;99.90;;;;;;5157087;27;20109;-77
2022/07/15 01:01:20;;;;;;;13.63;3.00;;;12.30;99.90;;;;;;5138820;27;20084;-77
2022/07/15 01:03:48;;;;;;;10.60;2.88;;;12.30;99.90;;;;;;5138094;27;20475;-77
2022/07/15 01:06:14;;;;;;;7.63;2.58;;;12.40;99.90;;;;;;5121148;27;20134;-77
2022/07/15 01:08:40;;;;;;;12.32;2.70;;;12.40;99.90;;;;;;5103598;27;20178;-77
2022/07/15 01:11:06;;;;;;;8.43;2.50;;;12.40;99.90;;;;;;5138110;27;20103;-77
2022/07/15 01:13:32;;;;;;;11.40;2.73;;;12.40;99.90;;;;;;5138198;27;20052;-78
2022/07/15 01:15:58;;;;;;;11.48;2.38;;;12.40;99.90;;;;;;5156112;27;20050;-76
2022/07/15 01:18:24;;;;;;;10.07;2.42;;;12.50;99.90;;;;;;5137755;27;20051;-78
2022/07/15 01:20:49;;;;;;;9.27;2.38;;;12.50;99.90;;;;;;5137359;27;20132;-77
2022/07/15 01:23:16;;;;;;;11.32;2.50;;;12.50;99.90;;;;;;5120563;27;20049;-78
2022/07/15 01:25:42;;;;;;;18.52;2.88;;;12.50;99.90;;;;;;5120741;27;20054;-77
2022/07/15 01:28:09;;;;;;;13.30;2.70;;;12.60;99.90;;;;;;5155953;27;20051;-77
2022/07/15 01:30:36;;;;;;;13.52;2.70;;;12.60;99.90;;;;;;5155788;27;20039;-77
2022/07/15 01:33:02;;;;;;;10.25;2.38;;;12.60;99.90;;;;;;5137653;27;20058;-78
2022/07/15 01:35:28;;;;;;;13.38;2.90;;;12.70;99.90;;;;;;5155939;27;20047;-77
2022/07/15 01:37:54;;;;;;;14.45;3.10;;;12.70;99.90;;;;;;5137252;27;20083;-78
2022/07/15 01:40:20;;;;;;;12.60;3.17;;;12.70;99.90;;;;;;5136967;27;20478;-77
2022/07/15 01:42:46;;;;;;;12.63;1.85;;;12.70;99.90;;;;;;5137618;27;20054;-77
2022/07/15 01:45:12;;;;;;;10.35;2.00;;;12.70;99.90;;;;;;5137633;27;20043;-78
2022/07/15 01:47:46;;;;;;;15.97;2.27;;;12.80;99.90;;;;;;5120035;27;20470;-76
2022/07/15 01:50:12;;;;;;;9.13;2.05;;;13.00;99.90;;;;;;5156139;27;20046;-76
2022/07/15 01:52:38;;;;;;;14.60;2.33;;;13.00;99.90;;;;;;5136792;27;20046;-77
2022/07/15 01:55:06;;;;;;;12.40;1.50;;;13.10;99.90;;;;;;5137369;27;20467;-76
2022/07/15 01:57:32;;;;;;;17.00;1.95;;;13.10;99.90;;;;;;5136956;27;20046;-76
2022/07/15 01:59:57;;;;;;;11.45;2.10;;;13.20;99.90;;;;;;5155342;27;20091;-77
2022/07/15 02:02:23;;;;;;;12.85;1.90;;;13.20;99.90;;;;;;5154072;27;20044;-80
2022/07/15 02:04:49;;;;;;;9.18;1.40;;;13.30;99.90;;;;;;5137449;27;20074;-77
2022/07/15 02:07:15;;;;;;;10.82;1.58;;;13.30;99.90;;;;;;5136654;27;20141;-77
2022/07/15 02:09:41;;;;;;;10.55;1.48;;;13.30;99.90;;;;;;5119383;27;20111;-76
2022/07/15 02:12:07;;;;;;;13.18;2.00;;;13.30;99.90;;;;;;5119849;27;20051;-78
2022/07/15 02:14:34;;;;;;;10.77;1.80;;;13.30;99.90;;;;;;5154470;27;20039;-79
2022/07/15 02:17:00;;;;;;;14.82;2.22;;;13.40;99.90;;;;;;5155521;27;20154;-77
2022/07/15 02:19:26;;;;;;;10.40;1.50;;;13.30;99.90;;;;;;5119662;27;20752;-77
2022/07/15 02:21:52;;;;;;;15.00;1.98;;;13.30;99.90;;;;;;5153314;27;20117;-76
2022/07/15 02:24:19;;;;;;;11.70;1.98;;;13.30;99.90;;;;;;5137298;27;20135;-77
2022/07/15 02:26:46;;;;;;;12.43;1.92;;;13.30;99.90;;;;;;5136897;27;20427;-77
2022/07/15 02:29:12;;;;;;;11.85;1.92;;;13.30;99.90;;;;;;5119659;27;20110;-79
2022/07/15 02:31:38;;;;;;;9.83;2.27;;;13.30;99.90;;;;;;5137010;27;20038;-77
2022/07/15 02:34:04;;;;;;;14.60;2.08;;;13.30;99.90;;;;;;5155066;27;20054;-79
2022/07/15 02:36:30;;;;;;;11.67;2.23;;;13.20;99.90;;;;;;5120256;27;20492;-77
2022/07/15 02:38:56;;;;;;;15.35;2.80;;;13.30;99.90;;;;;;5153783;27;20051;-77
2022/07/15 02:41:23;;;;;;;12.23;2.42;;;13.20;99.90;;;;;;5121270;27;20419;-78
2022/07/15 02:43:50;;;;;;;14.82;2.25;;;13.20;99.90;;;;;;5156291;27;20042;-77
2022/07/15 02:46:16;;;;;;;13.98;2.55;;;13.20;99.90;;;;;;5137834;27;20042;-77
2022/07/15 02:48:42;;;;;;;12.55;2.55;;;13.10;99.90;;;;;;5137676;27;20057;-77
2022/07/15 02:51:08;;;;;;;12.20;2.13;;;13.00;99.90;;;;;;5137267;27;20113;-78
2022/07/15 02:53:34;;;;;;;12.60;2.53;;;13.00;99.90;;;;;;5155815;27;20053;-78
2022/07/15 02:56:01;;;;;;;13.82;2.65;;;12.90;99.90;;;;;;5155604;27;20042;-78
2022/07/15 02:58:29;;;;;;;8.20;2.70;;;12.80;99.90;;;;;;5155515;27;20047;-78
2022/07/15 03:00:55;;;;;;;15.98;3.58;;;12.70;99.90;;;;;;5155693;27;20043;-77
2022/07/15 03:03:20;;;;;;;13.43;2.90;;;12.60;99.90;;;;;;5155517;27;20045;-77
2022/07/15 03:05:47;;;;;;;12.98;3.13;;;12.50;99.90;;;;;;5153896;27;20390;-81
2022/07/15 03:08:12;;;;;;;11.15;2.72;;;12.40;99.90;;;;;;5136833;27;20116;-77
2022/07/15 03:10:38;;;;;;;13.18;3.15;;;12.40;99.90;;;;;;5153506;27;20063;-77
2022/07/15 03:13:04;;;;;;;18.40;3.33;;;12.30;99.90;;;;;;5153296;27;20045;-77
2022/07/15 03:15:30;;;;;;;18.15;3.38;;;12.20;99.90;;;;;;5154771;27;20358;-78
2022/07/15 03:17:55;;;;;;;16.27;3.25;;;12.20;99.90;;;;;;5135937;27;20069;-77
2022/07/15 03:20:21;;;;;;;14.45;3.50;;;12.10;99.90;;;;;;5136442;27;20050;-76
2022/07/15 03:22:47;;;;;;;14.70;3.08;;;12.10;99.90;;;;;;5153162;27;20039;-78
2022/07/15 03:25:13;;;;;;;11.50;3.70;;;12.00;99.90;;;;;;5136526;27;20038;-78
2022/07/15 03:27:39;;;;;;;13.65;3.72;;;11.90;99.90;;;;;;5154315;27;20069;-77
2022/07/15 03:30:05;;;;;;;13.57;3.70;;;11.90;99.90;;;;;;5135625;27;20082;-77
2022/07/15 03:32:31;;;;;;;13.00;3.07;;;11.80;99.90;;;;;;5120158;27;20058;-77
2022/07/15 03:34:57;;;;;;;13.38;3.63;;;11.80;99.90;;;;;;5158036;27;20284;-78
2022/07/15 03:37:23;;;;;;;15.50;3.50;;;11.80;99.90;;;;;;5158311;27;20050;-76
2022/07/15 03:39:49;;;;;;;16.90;3.75;;;11.70;99.90;;;;;;5139348;27;20097;-76
2022/07/15 03:42:14;;;;;;;12.57;3.15;;;11.70;99.90;;;;;;5139950;27;20416;-77
2022/07/15 03:44:40;;;;;;;12.93;3.38;;;11.70;99.90;;;;;;5157037;27;20058;-76
2022/07/15 03:47:06;;;;;;;14.30;3.63;;;11.60;99.90;;;;;;5156403;27;20046;-77
2022/07/15 03:49:31;;;;;;;12.98;3.75;;;11.60;99.90;;;;;;5139364;27;20099;-77
2022/07/15 03:51:57;;;;;;;15.95;3.42;;;11.60;99.90;;;;;;5122307;27;20388;-77
2022/07/15 03:54:23;;;;;;;14.43;3.65;;;11.70;99.90;;;;;;5139471;27;20535;-76
2022/07/15 03:56:49;;;;;;;11.75;3.30;;;11.70;99.90;;;;;;5139072;27;20076;-75
2022/07/15 03:59:16;;;;;;;14.25;3.60;;;11.60;99.90;;;;;;5138553;27;20049;-78
2022/07/15 04:01:41;;;;;;;13.98;3.38;;;11.70;99.90;;;;;;5157685;27;20127;-76
2022/07/15 04:04:08;;;;;;;17.33;3.63;;;11.60;99.90;;;;;;5139413;27;20133;-78
2022/07/15 04:06:35;;;;;;;14.13;3.92;;;11.60;99.90;;;;;;5138902;27;20125;-77
2022/07/15 04:09:00;;;;;;;13.50;3.70;;;11.60;99.90;;;;;;5122367;27;20047;-76
2022/07/15 04:11:26;;;;;;;12.65;3.47;;;11.60;99.90;;;;;;5138691;27;20050;-78
2022/07/15 04:13:52;;;;;;;16.92;3.53;;;11.70;99.90;;;;;;5138591;27;20102;-78
2022/07/15 04:16:18;;;;;;;13.07;2.97;;;11.70;99.90;;;;;;5138495;27;20192;-77
2022/07/15 04:18:44;;;;;;;15.13;3.50;;;11.70;99.90;;;;;;5157681;27;20074;-76
2022/07/15 04:21:10;;;;;;;17.88;3.17;;;11.80;99.90;;;;;;5122215;27;20082;-76
2022/07/15 04:23:36;;;;;;;11.10;2.97;;;11.80;99.90;;;;;;5139098;27;20440;-76
2022/07/15 04:26:03;;;;;;;12.77;3.20;;;11.90;99.90;;;;;;5156170;27;20292;-76
2022/07/15 04:28:28;;;;;;;12.15;3.58;;;11.90;99.90;;;;;;5121806;27;20147;-78
2022/07/15 04:30:54;;;;;;;13.60;4.05;;;12.00;99.90;;;;;;5157382;27;20088;-76
2022/07/15 04:33:20;;;;;;;20.85;3.83;;;12.00;99.90;;;;;;5138196;27;20040;-77
2022/07/15 04:35:46;;;;;;;16.48;4.03;;;12.10;99.90;;;;;;5137953;27;20043;-78
2022/07/15 04:38:12;;;;;;;13.32;4.07;;;12.10;99.90;;;;;;5138290;27;20100;-77
2022/07/15 04:40:39;;;;;;;17.52;3.90;;;12.10;99.90;;;;;;5137845;27;20042;-76
2022/07/15 04:43:06;;;;;;;22.95;3.95;;;12.20;99.90;;;;;;5138302;27;20046;-76
2022/07/15 04:45:33;;;;;;;14.57;3.72;;;12.20;99.90;;;;;;5137464;27;20050;-76
2022/07/15 04:47:59;;;;;;;18.00;4.20;;;12.20;99.90;;;;;;5156160;27;20049;-79
2022/07/15 04:53:08;;;;;;;11.75;3.80;;;12.30;99.90;;;;;;5155860;27;20438;-78
2022/07/15 04:55:34;;;;;;;11.73;3.80;;;12.40;99.90;;;;;;5156043;27;20089;-77
2022/07/15 04:58:00;;;;;;;12.75;3.88;;;12.40;99.90;;;;;;5155209;27;20085;-77
2022/07/15 05:00:26;;;;;;;15.77;4.15;;;12.50;99.90;;;;;;5156411;27;20042;-78
2022/07/15 05:02:52;;;;;;;15.85;4.43;;;12.50;99.90;;;;;;5138287;27;20043;-79
2022/07/15 05:05:18;;;;;;;18.30;3.42;;;12.60;99.90;;;;;;5138217;27;20054;-81
2022/07/15 05:07:45;;;;;;;16.77;3.60;;;12.60;99.90;;;;;;5137662;27;20062;-78
2022/07/15 05:10:11;;;;;;;15.82;3.50;;;12.70;99.90;;;;;;5120442;27;20069;-77
2022/07/15 05:12:37;;;;;;;14.67;3.23;;;12.80;99.90;;;;;;5136968;27;20042;-76
2022/07/15 05:15:04;;;;;;;15.15;3.47;;;12.80;99.90;;;;;;5137519;27;20039;-78
2022/07/15 05:17:30;;;;;;;14.07;3.70;;;12.80;99.90;;;;;;5137143;27;20047;-77
2022/07/15 05:19:56;;;;;;;14.52;3.17;;;12.90;99.90;;;;;;5120277;27;20042;-77
2022/07/15 05:22:22;;;;;;;15.23;3.20;;;13.00;99.90;;;;;;5155554;27;20054;-75
2022/07/15 05:24:48;;;;;;;13.02;2.92;;;13.10;99.90;;;;;;5137367;27;20056;-76
2022/07/15 05:27:14;;;;;;;9.60;2.38;;;13.20;99.90;;;;;;5155575;27;20085;-76
2022/07/15 05:29:40;;;;;;;17.30;3.50;;;13.30;99.90;;;;;;5137425;27;20129;-75
2022/07/15 05:32:06;;;;;;;13.07;2.83;;;13.50;99.90;;;;;;5155363;27;20082;-78
2022/07/15 05:34:32;;;;;;;12.02;2.30;;;13.80;99.90;;;;;;5137110;27;20043;-76
2022/07/15 05:36:58;;;;;;;13.73;2.25;;;14.00;99.90;;;;;;5154039;27;20065;-77
2022/07/15 05:39:24;;;;;;;10.65;1.60;;;14.20;99.90;;;;;;5119723;27;20052;-79
2022/07/15 05:41:50;;;;;;;12.00;1.53;;;14.40;99.90;;;;;;5136520;27;20142;-79
2022/07/15 05:44:19;;;;;;;9.50;1.02;;;14.60;99.90;;;;;;5136716;27;20134;-78
2022/07/15 05:46:44;;;;;;;8.57;0.80;;;14.70;99.90;;;;;;5155271;27;20042;-78
2022/07/15 05:49:10;;;;;;;8.70;1.08;;;14.90;99.90;;;;;;5120341;27;20049;-77
2022/07/15 05:51:36;;;;;;;8.30;1.30;;;15.00;99.90;;;;;;5155262;27;20085;-78
2022/07/15 05:54:06;;;;;;;12.00;1.00;;;15.10;99.90;;;;;;5154810;27;20554;-78
2022/07/15 05:56:32;;;;;;;9.40;1.23;;;15.30;99.90;;;;;;5135830;27;20510;-78
2022/07/15 05:58:58;;;;;;;5.95;0.73;;;15.30;99.90;;;;;;5154981;27;20058;-81
2022/07/15 06:01:24;;;;;;;7.13;1.00;;;15.30;99.90;;;;;;5136774;27;20043;-78
2022/07/15 06:03:50;;;;;;;3.45;0.65;;;15.40;99.90;;;;;;5155133;27;20042;-77
2022/07/15 06:06:16;;;;;;;4.28;0.50;;;15.40;99.90;;;;;;5136685;27;20141;-77
2022/07/15 06:08:43;;;;;;;3.72;0.60;;;15.40;99.90;;;;;;5155019;27;20115;-77
2022/07/15 06:11:11;;;;;;;4.97;0.50;;;15.40;99.90;;;;;;5103131;27;20034;-78
2022/07/15 06:13:38;;;;;;;7.20;0.70;;;15.30;99.90;;;;;;5154870;27;20346;-76
2022/07/15 06:16:04;;;;;;;6.18;0.40;;;15.30;99.90;;;;;;5154839;27;20062;-77
2022/07/15 06:18:30;;;;;;;4.38;0.50;;;15.10;99.90;;;;;;5136386;27;20052;-76
2022/07/15 06:20:56;;;;;;;8.18;0.60;;;15.00;99.90;;;;;;5154216;27;20271;-76
2022/07/15 06:23:22;;;;;;;4.45;0.50;;;14.90;99.90;;;;;;5136127;27;20064;-76
2022/07/15 06:25:47;;;;;;;3.45;0.40;;;14.80;99.90;;;;;;5154498;27;20125;-76
2022/07/15 06:28:13;;;;;;;9.82;0.70;;;14.80;99.90;;;;;;5136116;27;20078;-79
2022/07/15 06:30:42;;;;;;;5.82;0.50;;;14.80;99.90;;;;;;5136524;27;20055;-77
2022/07/15 06:33:08;;;;;;;5.10;0.35;;;14.80;99.90;;;;;;5136982;27;20034;-76
2022/07/15 06:35:34;;;;;;;7.73;0.50;;;14.80;99.90;;;;;;5154701;27;20111;-78
2022/07/15 06:38:00;;;;;;;6.60;0.50;;;14.90;99.90;;;;;;5101732;27;20042;-77
2022/07/15 06:40:26;;;;;;;3.22;0.38;;;15.00;99.90;;;;;;5135507;27;20046;-78
2022/07/15 06:42:51;;;;;;;2.85;0.30;;;15.10;99.90;;;;;;5136205;27;20054;-78
2022/07/15 06:45:20;;;;;;;3.45;0.40;;;15.20;99.90;;;;;;5154602;27;20035;-80
2022/07/15 06:47:45;;;;;;;3.35;0.30;;;15.30;99.90;;;;;;5154679;27;20175;-77
2022/07/15 06:50:11;;;;;;;4.82;0.32;;;15.40;99.90;;;;;;5154870;27;20074;-80
2022/07/15 06:52:37;;;;;;;4.57;0.30;;;15.50;99.90;;;;;;5154373;27;20046;-78
2022/07/15 06:55:07;;;;;;;2.80;0.37;;;15.60;99.90;;;;;;5136373;27;20046;-75
2022/07/15 06:57:32;;;;;;;11.10;0.30;;;15.70;99.90;;;;;;5154988;27;20051;-78
2022/07/15 07:00:00;;;;;;;3.90;0.20;;;15.90;99.90;;;;;;5119266;27;20394;-81
2022/07/15 07:02:30;;;;;;;4.95;0.20;;;15.90;99.90;;;;;;5156564;27;20078;-78
2022/07/15 07:04:55;;;;;;;1.88;0.20;;;16.00;99.90;;;;;;5119223;27;20129;-76
2022/07/15 07:07:21;;;;;;;3.63;0.30;;;16.10;99.90;;;;;;5103003;27;20129;-78
2022/07/15 07:09:47;;;;;;;5.60;0.30;;;16.20;99.90;;;;;;5140329;27;20099;-78
2022/07/15 07:12:13;;;;;;;4.25;0.20;;;16.20;99.90;;;;;;5139557;27;20042;-76
2022/07/15 07:14:39;;;;;;;1.67;0.20;;;16.30;99.90;;;;;;5139986;27;20507;-78
2022/07/15 07:17:04;;;;;;;5.13;0.20;;;16.40;99.90;;;;;;5122816;27;20082;-76
2022/07/15 07:19:31;;;;;;;2.30;0.20;;;16.50;99.90;;;;;;5157143;27;20039;-77
2022/07/15 07:21:56;;;;;;;1.55;0.20;;;16.50;99.90;;;;;;5157979;27;20047;-77
2022/07/15 07:24:22;;;;;;;6.43;0.30;;;16.60;99.90;;;;;;5122414;27;20130;-77
2022/07/15 07:26:48;;;;;;;3.50;0.20;;;16.60;99.90;;;;;;5157036;27;20063;-78
2022/07/15 07:29:16;;;;;;;3.70;0.20;;;16.70;99.90;;;;;;5157073;27;20046;-78
2022/07/15 07:31:42;;;;;;;7.95;0.40;;;16.80;99.90;;;;;;5157420;27;20047;-80
2022/07/15 07:34:07;;;;;;;2.67;0.20;;;16.90;99.90;;;;;;5139946;27;20058;-79
2022/07/15 07:36:33;;;;;;;5.30;0.30;;;17.00;99.90;;;;;;5158180;27;20062;-77
2022/07/15 07:38:59;;;;;;;2.13;0.22;;;17.10;99.90;;;;;;5157830;27;20047;-77
2022/07/15 07:41:25;;;;;;;2.00;0.20;;;17.30;99.90;;;;;;5157969;27;20049;-77
2022/07/15 07:43:50;;;;;;;1.77;0.10;;;17.30;99.90;;;;;;5140121;27;20050;-77
2022/07/15 07:46:16;;;;;;;7.05;0.20;;;17.20;99.90;;;;;;5122640;27;20058;-76
2022/07/15 07:48:42;;;;;;;2.13;0.10;;;17.10;99.90;;;;;;5123500;27;20069;-78
2022/07/15 07:51:09;;;;;;;2.73;0.20;;;17.20;99.90;;;;;;5123411;27;20459;-77
2022/07/15 07:53:35;;;;;;;2.20;0.20;;;17.30;99.90;;;;;;5140235;27;20374;-77
2022/07/15 07:56:00;;;;;;;4.15;0.22;;;17.50;99.90;;;;;;5158086;27;20050;-77
2022/07/15 07:58:26;;;;;;;3.90;0.40;;;17.70;99.90;;;;;;5158025;27;20043;-79
2022/07/15 08:00:52;;;;;;;5.43;0.20;;;17.90;99.90;;;;;;5141674;27;20042;-78
2022/07/15 08:03:18;;;;;;;4.67;0.20;;;17.80;99.90;;;;;;5140680;27;20042;-78
2022/07/15 08:05:44;;;;;;;3.00;0.20;;;17.80;99.90;;;;;;5157529;27;20484;-79
2022/07/15 08:08:14;;;;;;;5.90;0.40;;;18.00;99.20;;;;;;5122962;27;20038;-77
2022/07/15 08:10:42;;;;;;;4.40;0.20;;;17.80;97.50;;;;;;5122515;27;20121;-77
2022/07/15 08:13:08;;;;;;;6.60;0.20;;;17.80;98.60;;;;;;5123024;27;20089;-76
2022/07/15 08:15:34;;;;;;;1.23;0.17;;;18.00;99.10;;;;;;5156957;27;20365;-77
2022/07/15 08:18:01;;;;;;;3.17;0.20;;;18.00;98.70;;;;;;5138571;27;20046;-78
2022/07/15 08:20:28;;;;;;;3.50;0.10;;;18.10;98.80;;;;;;5156267;27;20054;-76
2022/07/15 08:22:58;;;;;;;1.25;0.20;;;18.20;98.20;;;;;;5157334;27;20043;-77
2022/07/15 08:25:33;;;;;;;1.23;0.10;;;18.20;98.10;;;;;;5139457;27;20347;-80
2022/07/15 08:27:59;;;;;;;4.72;0.20;;;18.10;98.20;;;;;;5157806;27;20054;-76
2022/07/15 08:30:26;;;;;;;4.72;0.20;;;18.10;97.90;;;;;;5157680;27;20031;-78
2022/07/15 08:32:54;;;;;;;0.68;0.10;;;18.10;97.90;;;;;;5139086;27;20050;-78
2022/07/15 08:35:20;;;;;;;2.80;0.15;;;18.10;97.80;;;;;;5157862;27;20367;-78
2022/07/15 08:37:46;;;;;;;9.05;5.28;;;18.20;97.80;;;;;;5157519;27;20496;-76
2022/07/15 08:40:12;;;;;;;5.07;2.40;;;18.50;97.90;;;;;;5138068;27;20058;-77
2022/07/15 08:42:41;;;;;;;1.85;0.20;;;18.80;97.90;;;;;;5121719;27;20069;-78
2022/07/15 08:45:08;;;;;;;3.15;0.10;;;18.80;97.40;;;;;;5156577;27;20134;-76
2022/07/15 08:47:36;;;;;;;;;;;18.90;97.20;;;;;;5138224;27;20494;-78
2022/07/15 08:50:03;;;;;;;2.85;0.10;;;18.90;96.00;;;;;;5156248;27;19919;-80
2022/07/15 08:52:32;;;;;;;5.07;0.20;;;18.90;96.30;;;;;;5138597;27;20050;-78
2022/07/15 08:54:58;;;;;;;1.80;0.20;;;19.00;96.50;;;;;;5138336;27;20494;-78
2022/07/15 08:57:24;;;;;;;3.93;0.30;;;19.00;96.40;;;;;;5156882;27;20054;-78
2022/07/15 08:59:52;;;;;;;3.20;0.20;;;18.90;96.50;;;;;;5137874;27;20070;-78
2022/07/15 09:02:22;;;;;;;2.97;0.20;;;18.70;95.90;;;;;;5137841;27;20046;-76
2022/07/15 09:05:15;;;;;;;0.90;0.10;;;18.70;96.20;;;;;;5137882;27;20451;-79
2022/07/15 09:07:54;;;;;;;2.28;0.20;;;18.90;95.50;;;;;;5156097;27;20134;-78
2022/07/15 09:10:25;;;;;;;2.03;0.28;;;19.10;95.30;;;;;;5156362;27;20478;-80
2022/07/15 09:12:53;;;;;;;5.55;0.20;;;19.00;95.30;;;;;;5155966;27;20076;-79
2022/07/15 09:15:34;;;;;;;1.95;0.10;;;19.10;95.30;;;;;;5137981;27;20432;-79
2022/07/15 09:18:14;;;;;;;3.13;0.20;;;19.10;95.60;;;;;;5120074;27;20137;-77
2022/07/15 09:20:42;;;;;;;2.05;0.10;;;19.10;96.20;;;;;;5155472;27;20463;-79
2022/07/15 09:23:16;;;;;;;1.67;0.13;;;19.20;95.80;;;;;;5155808;27;20043;-79
2022/07/15 09:25:42;;;;;;;0.88;0.20;;;19.30;95.10;;;;;;5137761;27;20050;-83
2022/07/15 09:28:08;;;;;;;1.20;0.10;;;19.50;93.70;;;;;;5137202;27;20051;-78
2022/07/15 09:36:20;;;;;;;3.25;0.20;;;20.00;93.30;;;;;;5155694;27;20477;-79
2022/07/15 09:38:56;;;;;;;0.70;0.03;;;20.40;93.20;;;;;;5136869;27;20065;-78
2022/07/15 09:41:26;;;;;;;0.98;0.20;;;20.60;92.40;;;;;;5137530;27;20134;-80
2022/07/15 09:44:08;;;;;;;0.68;0.20;;;20.60;91.60;;;;;;5120263;27;20062;-76
2022/07/15 09:46:44;;;;;;;1.85;0.20;;;20.40;89.50;;;;;;5120066;27;20061;-79
2022/07/15 09:49:12;;;;;;;2.95;0.20;;;20.40;91.30;;;;;;5137186;27;20057;-79
2022/07/15 09:51:54;;;;;;;2.70;0.10;;;20.40;92.10;;;;;;5155316;27;20057;-79
2022/07/15 09:54:25;;;;;;;2.72;0.17;;;20.50;90.20;;;;;;5156072;27;20047;-79
2022/07/15 09:56:52;;;;;;;1.02;0.10;;;20.60;90.40;;;;;;5120851;27;20050;-77
2022/07/15 09:59:19;;;;;;;2.58;0.10;;;20.70;90.30;;;;;;5136818;27;20047;-77
2022/07/15 10:01:47;;;;;;;;;;;20.90;90.40;;;;;;5137262;27;20042;-80
2022/07/15 10:04:15;;;;;;;3.50;0.20;;;21.00;90.70;;;;;;5119998;27;19962;-76
2022/07/15 10:06:42;;;;;;;1.13;0.10;;;20.90;90.50;;;;;;5137323;27;20087;-78
2022/07/15 10:09:09;;;;;;;2.30;0.25;;;20.90;90.00;;;;;;5157772;27;20545;-73
2022/07/15 10:11:48;;;;;;;2.83;0.17;;;20.50;90.40;;;;;;5160087;27;20090;-78
2022/07/15 10:14:40;;;;;;;1.13;0.20;;;20.40;90.40;;;;;;5155983;27;20034;-79
2022/07/15 10:17:29;;;;;;;2.42;0.30;;;20.50;90.60;;;;;;5119414;27;20078;-77
2022/07/15 10:20:32;;;;;;;2.30;0.20;;;20.70;90.60;;;;;;5155350;27;20539;-77
2022/07/15 10:23:26;;;;;;;1.48;0.20;;;20.90;89.30;;;;;;5155354;27;20375;-77
2022/07/15 10:26:37;;;;;;;6.13;0.20;;;21.20;90.20;;;;;;5154430;27;20039;-78
2022/07/15 10:29:06;;;;;;;3.67;0.40;;;21.20;90.40;;;;;;5136704;27;20047;-78
2022/07/15 10:31:34;;;;;;;1.67;0.30;;;21.40;90.10;;;;;;5154574;27;20054;-78
2022/07/15 10:34:20;;;;;;;1.63;0.28;;;21.40;90.00;;;;;;5136893;27;20403;-77
2022/07/15 10:36:46;;;;;;;3.40;0.20;;;21.20;89.40;;;;;;5154184;27;20129;-77
2022/07/15 10:39:12;;;;;;;3.80;0.20;;;21.30;88.90;;;;;;5155022;27;20138;-78
2022/07/15 10:41:50;;;;;;;3.75;0.30;;;21.10;88.90;;;;;;5118582;27;20062;-79
2022/07/15 10:44:16;;;;;;;2.03;0.30;;;21.30;88.20;;;;;;5154571;27;20046;-78
2022/07/15 10:46:42;;;;;;;2.47;0.30;;;21.20;89.50;;;;;;5154965;27;20456;-78
2022/07/15 10:49:08;;;;;;;4.27;0.30;;;20.90;88.70;;;;;;5118402;27;20074;-80
2022/07/15 10:51:36;;;;;;;4.95;0.30;;;20.90;90.00;;;;;;5154328;27;20046;-78
2022/07/15 10:54:04;;;;;;;3.00;0.30;;;21.10;90.00;;;;;;5119028;27;20142;-80
2022/07/15 10:56:34;;;;;;;5.82;0.30;;;21.20;90.00;;;;;;5136608;27;20064;-80
2022/07/15 10:59:16;;;;;;;5.10;0.28;;;21.30;89.90;;;;;;5136187;27;20119;-79
2022/07/15 11:01:44;;;;;;;2.47;0.20;;;21.20;89.50;;;;;;5135832;27;20046;-78
2022/07/15 11:04:23;;;;;;;2.75;0.30;;;21.30;90.00;;;;;;5135832;27;20069;-77
2022/07/15 11:07:06;;;;;;;2.80;0.17;;;21.40;90.10;;;;;;5136227;27;20103;-78
2022/07/15 11:10:11;;;;;;;2.22;0.20;;;21.10;90.20;;;;;;5136485;27;20119;-78
2022/07/15 11:12:37;;;;;;;1.73;0.20;;;21.50;90.30;;;;;;5136651;27;20117;-80
2022/07/15 11:15:06;;;;;;;4.53;0.30;;;21.70;90.30;;;;;;5120456;27;20498;-78
2022/07/15 11:17:32;;;;;;;3.38;0.30;;;21.80;89.90;;;;;;5138237;27;20170;-78
2022/07/15 11:20:11;;;;;;;2.63;0.20;;;21.90;88.30;;;;;;5137545;27;20236;-80
2022/07/15 11:22:43;;;;;;;3.90;0.40;;;22.00;88.70;;;;;;5137112;27;20058;-79
2022/07/15 11:25:20;;;;;;;1.40;0.20;;;21.80;88.50;;;;;;5155373;27;20400;-80
2022/07/15 11:28:08;;;;;;;3.45;0.20;;;21.50;87.20;;;;;;5118244;27;20050;-78
2022/07/15 11:30:39;;;;;;;2.28;0.20;;;21.10;86.70;;;;;;5153246;27;20144;-77
2022/07/15 11:33:13;;;;;;;4.60;0.30;;;21.20;87.40;;;;;;5154006;27;20558;-77
2022/07/15 11:36:02;;;;;;;2.45;0.10;;;21.30;88.70;;;;;;5118303;27;20046;-78
2022/07/15 11:38:37;;;;;;;1.80;0.20;;;21.10;87.40;;;;;;5153883;27;20043;-81
2022/07/15 11:46:49;;;;;;;2.30;0.20;;;21.20;88.30;;;;;;5136426;27;20394;-81
2022/07/15 11:49:44;;;;;;;2.05;0.20;;;21.50;88.60;;;;;;5154098;27;20083;-78
2022/07/15 11:52:23;;;;;;;1.92;0.20;;;21.80;85.70;;;;;;5153983;27;20050;-79
2022/07/15 11:54:49;;;;;;;1.50;0.20;;;22.20;84.00;;;;;;5122582;27;20050;-79
2022/07/15 11:57:16;;;;;;;2.30;0.20;;;22.40;83.70;;;;;;5157890;27;20042;-78
2022/07/15 11:59:54;;;;;;;4.07;0.17;;;22.40;82.30;;;;;;5139665;27;20076;-79
2022/07/15 12:02:26;;;;;;;1.05;0.20;;;22.50;82.00;;;;;;5122991;27;20038;-77
2022/07/15 12:05:02;;;;;;;1.63;0.20;;;22.60;82.00;;;;;;5139609;27;20054;-78
2022/07/15 12:07:39;;;;;;;3.28;0.20;;;22.50;81.60;;;;;;5139973;27;20046;-79
2022/07/15 12:10:06;;;;;;;1.38;0.20;;;22.60;82.00;;;;;;5122099;27;20462;-78
2022/07/15 12:12:32;;;;;;;1.67;0.30;;;22.70;81.30;;;;;;5105743;27;20165;-80
2022/07/15 12:14:58;;;;;;;2.57;0.20;;;22.80;81.50;;;;;;5139305;27;20133;-79
2022/07/15 12:17:24;;;;;;;4.60;0.30;;;22.20;82.50;;;;;;5105114;27;20050;-78
2022/07/15 12:19:53;;;;;;;2.25;0.20;;;22.50;82.70;;;;;;5138566;27;20077;-80
2022/07/15 12:22:19;;;;;;;4.00;0.20;;;22.40;83.10;;;;;;5138811;27;20086;-78
2022/07/15 12:24:51;;;;;;;4.15;0.30;;;22.40;83.00;;;;;;5121473;27;20058;-79
2022/07/15 12:27:17;;;;;;;6.32;0.40;;;22.30;82.50;;;;;;5157820;27;20388;-79
2022/07/15 12:29:43;;;;;;;3.78;0.30;;;22.60;83.70;;;;;;5138514;27;20546;-80
2022/07/15 12:32:11;;;;;;;5.07;0.30;;;22.60;83.70;;;;;;5138708;27;20495;-80
2022/07/15 12:34:46;;;;;;;4.72;0.30;;;22.20;83.90;;;;;;5155323;27;20091;-78
2022/07/15 12:37:18;;;;;;;3.65;0.20;;;22.00;83.70;;;;;;5138541;27;20091;-82
2022/07/15 12:40:08;;;;;;;6.07;0.40;;;21.90;83.40;;;;;;5138271;27;20055;-79
2022/07/15 12:42:48;;;;;;;4.20;0.30;;;21.70;84.40;;;;;;5121727;27;20082;-80
2022/07/15 12:45:21;;;;;;;3.78;0.25;;;21.40;85.20;;;;;;5157518;27;20047;-78
2022/07/15 12:48:03;;;;;;;2.97;0.50;;;21.40;85.90;;;;;;5156369;27;20488;-78
2022/07/15 12:50:34;;;;;;;4.43;0.30;;;21.30;85.60;;;;;;5139024;27;20078;-79
2022/07/15 12:53:01;;;;;;;3.25;0.30;;;21.50;85.90;;;;;;5157256;27;20401;-78
2022/07/15 12:55:41;;;;;;;2.15;0.20;;;21.80;85.50;;;;;;5121191;27;20099;-78
2022/07/15 12:58:09;;;;;;;2.33;0.20;;;21.70;85.40;;;;;;5138577;27;20137;-79
2022/07/15 13:00:38;;;;;;;2.50;0.20;;;21.90;84.60;;;;;;5137930;27;20049;-78
2022/07/15 13:03:17;;;;;;;1.77;0.20;;;22.00;84.50;;;;;;5156623;27;20321;-80
2022/07/15 13:05:48;;;;;;;3.53;0.20;;;21.90;84.30;;;;;;5120701;27;20476;-79
2022/07/15 13:08:18;;;;;;;3.63;0.30;;;22.00;84.50;;;;;;5156466;27;20050;-78